createdAt,value
2022-08-20T00:01:01.876Z,5.67
2022-08-20T00:03:08.095Z,5.80
2022-08-20T00:05:10.870Z,5.40
2022-08-20T00:07:15.320Z,5.73
2022-08-20T00:09:17.956Z,6.40
2022-08-20T00:11:25.164Z,5.57
2022-08-20T00:13:29.768Z,5.43
2022-08-20T00:15:33.907Z,5.40
2022-08-20T00:17:38.055Z,5.37
2022-08-20T00:19:42.013Z,5.70
2022-08-20T00:21:44.878Z,5.77
2022-08-20T00:23:50.699Z,5.80
2022-08-20T00:25:53.374Z,5.63
2022-08-20T00:27:56.714Z,5.00
2022-08-20T00:29:59.419Z,4.93
2022-08-20T00:32:02.069Z,5.47
2022-08-20T00:34:04.679Z,5.43
2022-08-20T00:36:10.769Z,5.90
2022-08-20T00:38:13.414Z,5.70
2022-08-20T00:40:22.100Z,5.93
2022-08-20T00:42:25.680Z,5.50
2022-08-20T00:44:28.868Z,5.60
2022-08-20T00:46:31.906Z,5.43
2022-08-20T00:48:35.730Z,5.67
2022-08-20T00:50:38.337Z,4.90
2022-08-20T00:52:43.054Z,5.27
2022-08-20T00:54:54.824Z,5.60
2022-08-20T00:56:58.830Z,5.13
2022-08-20T00:59:01.466Z,4.90
2022-08-20T01:01:04.524Z,5.83
2022-08-20T01:03:08.340Z,5.20
2022-08-20T01:05:11.833Z,6.00
2022-08-20T01:07:14.431Z,4.53
2022-08-20T01:09:49.457Z,5.20
2022-08-20T01:11:41.245Z,4.67
2022-08-20T01:13:43.980Z,5.07
2022-08-20T01:15:48.133Z,5.03
2022-08-20T01:17:54.545Z,5.00
2022-08-20T01:19:59.424Z,5.67
2022-08-20T01:22:02.183Z,5.00
2022-08-20T01:24:06.825Z,4.93
2022-08-20T01:26:12.328Z,4.93
2022-08-20T01:28:17.641Z,5.00
2022-08-20T01:30:20.426Z,5.20
2022-08-20T01:32:23.059Z,5.17
2022-08-20T01:34:26.116Z,4.60
2022-08-20T01:36:30.269Z,5.30
2022-08-20T01:38:32.989Z,4.70
2022-08-20T01:40:49.722Z,4.97
2022-08-20T01:42:59.233Z,4.87
2022-08-20T01:45:04.263Z,4.53
2022-08-20T01:47:12.466Z,4.80
2022-08-20T01:49:22.908Z,5.00
2022-08-20T01:51:27.800Z,4.47
2022-08-20T01:53:33.481Z,4.30
2022-08-20T01:55:36.538Z,4.90
2022-08-20T01:57:39.168Z,5.20
2022-08-20T01:59:43.502Z,4.23
2022-08-20T02:01:47.160Z,4.30
2022-08-20T02:03:50.506Z,4.87
2022-08-20T02:05:53.347Z,4.57
2022-08-20T02:07:56.383Z,4.77
2022-08-20T02:09:59.177Z,4.47
2022-08-20T02:12:02.971Z,4.90
2022-08-20T02:14:07.237Z,4.47
2022-08-20T02:16:11.292Z,4.67
2022-08-20T02:18:15.580Z,5.13
2022-08-20T02:20:19.968Z,4.73
2022-08-20T02:22:24.616Z,4.53
2022-08-20T02:24:27.642Z,4.60
2022-08-20T02:26:30.686Z,4.63
2022-08-20T02:28:33.333Z,4.30
2022-08-20T02:30:37.167Z,4.70
2022-08-20T02:32:41.424Z,4.50
2022-08-20T02:34:44.430Z,4.60
2022-08-20T02:36:49.266Z,4.50
2022-08-20T02:38:51.852Z,4.77
2022-08-20T02:40:55.398Z,4.73
2022-08-20T02:42:58.566Z,4.30
2022-08-20T02:45:01.189Z,4.60
2022-08-20T02:47:03.828Z,4.40
2022-08-20T02:49:07.786Z,4.40
2022-08-20T02:51:10.925Z,4.83
2022-08-20T02:53:13.599Z,3.83
2022-08-20T02:55:18.177Z,4.13
2022-08-20T02:57:27.924Z,4.40
2022-08-20T02:59:30.879Z,3.80
2022-08-20T03:01:33.746Z,4.20
2022-08-20T03:03:36.557Z,4.17
2022-08-20T03:05:41.457Z,4.27
2022-08-20T03:07:44.788Z,4.70
2022-08-20T03:09:47.529Z,4.03
2022-08-20T03:11:50.275Z,4.10
2022-08-20T03:13:53.201Z,4.20
2022-08-20T03:15:58.972Z,4.50
2022-08-20T03:18:02.021Z,3.83
2022-08-20T03:20:06.083Z,4.50
2022-08-20T03:22:10.003Z,4.10
2022-08-20T03:24:13.013Z,4.90
2022-08-20T03:26:16.383Z,4.33
2022-08-20T03:28:19.293Z,4.33
2022-08-20T03:30:22.139Z,4.07
2022-08-20T03:32:25.180Z,4.03
2022-08-20T03:34:29.161Z,3.67
2022-08-20T03:36:31.910Z,4.00
2022-08-20T03:38:35.876Z,4.03
2022-08-20T03:40:39.082Z,3.53
2022-08-20T03:42:41.731Z,4.10
2022-08-20T03:44:44.335Z,4.10
2022-08-20T03:46:47.288Z,3.97
2022-08-20T03:48:50.280Z,4.60
2022-08-20T03:51:00.843Z,4.20
2022-08-20T03:53:03.489Z,4.43
2022-08-20T03:55:07.775Z,4.30
2022-08-20T03:57:12.491Z,4.20
2022-08-20T03:59:15.630Z,4.20
2022-08-20T04:01:37.141Z,4.10
2022-08-20T04:03:41.160Z,4.50
2022-08-20T04:05:44.364Z,4.47
2022-08-20T04:07:46.975Z,4.37
2022-08-20T04:09:49.598Z,4.00
2022-08-20T04:12:00.477Z,4.30
2022-08-20T04:14:03.084Z,4.23
2022-08-20T04:16:10.147Z,4.10
2022-08-20T04:18:20.246Z,4.13
2022-08-20T04:20:25.829Z,4.23
2022-08-20T04:22:28.485Z,4.00
2022-08-20T04:24:32.086Z,3.93
2022-08-20T04:26:37.168Z,4.27
2022-08-20T04:28:41.143Z,4.60
2022-08-20T04:30:51.702Z,4.50
2022-08-20T04:32:56.014Z,3.87
2022-08-20T04:35:00.732Z,4.90
2022-08-20T04:37:03.655Z,4.13
2022-08-20T04:39:06.273Z,4.83
2022-08-20T04:41:08.447Z,4.40
2022-08-20T04:43:26.553Z,4.00
2022-08-20T04:45:30.468Z,5.33
2022-08-20T04:47:34.497Z,3.50
2022-08-20T04:49:38.783Z,4.00
2022-08-20T04:51:41.384Z,4.37
2022-08-20T04:53:45.152Z,4.53
2022-08-20T04:55:56.018Z,4.90
2022-08-20T04:58:04.004Z,4.60
2022-08-20T05:00:08.473Z,4.10
2022-08-20T05:02:12.582Z,4.30
2022-08-20T05:04:19.112Z,4.50
2022-08-20T05:06:24.557Z,4.13
2022-08-20T05:08:27.236Z,4.27
2022-08-20T05:10:30.016Z,4.03
2022-08-20T05:12:32.639Z,4.40
2022-08-20T05:14:35.563Z,4.87
2022-08-20T05:16:38.931Z,3.90
2022-08-20T05:18:43.237Z,4.07
2022-08-20T05:20:45.946Z,4.23
2022-08-20T05:22:48.928Z,4.40
2022-08-20T05:24:53.731Z,4.37
2022-08-20T05:26:56.595Z,4.17
2022-08-20T05:28:59.616Z,4.60
2022-08-20T05:31:03.154Z,3.70
2022-08-20T05:33:06.438Z,4.07
2022-08-20T05:35:10.700Z,4.50
2022-08-20T05:37:13.346Z,4.10
2022-08-20T05:39:16.344Z,4.03
2022-08-20T05:41:29.110Z,3.70
2022-08-20T05:43:33.515Z,3.90
2022-08-20T05:45:37.659Z,4.60
2022-08-20T05:47:42.683Z,4.10
2022-08-20T05:49:46.833Z,4.10
2022-08-20T05:51:52.358Z,4.80
2022-08-20T05:53:55.203Z,3.80
2022-08-20T05:56:01.900Z,4.47
2022-08-20T05:58:05.623Z,4.93
2022-08-20T06:00:10.205Z,4.33
2022-08-20T06:02:26.772Z,4.30
2022-08-20T06:04:31.830Z,4.23
2022-08-20T06:06:46.072Z,3.53
2022-08-20T06:08:50.677Z,4.80
2022-08-20T06:10:54.063Z,5.60
2022-08-20T06:12:57.769Z,4.63
2022-08-20T06:15:01.776Z,5.17
2022-08-20T06:17:06.140Z,4.30
2022-08-20T06:19:11.392Z,5.20
2022-08-20T06:21:14.287Z,4.87
2022-08-20T06:23:17.061Z,4.80
2022-08-20T06:25:23.810Z,5.40
2022-08-20T06:27:27.167Z,6.17
2022-08-20T06:29:30.227Z,5.27
2022-08-20T06:31:34.555Z,5.27
2022-08-20T06:33:37.188Z,4.93
2022-08-20T06:35:40.136Z,5.10
2022-08-20T06:37:43.044Z,5.23
2022-08-20T06:39:45.962Z,5.50
2022-08-20T06:41:51.407Z,5.47
2022-08-20T06:43:56.335Z,5.90
2022-08-20T06:45:59.078Z,5.97
2022-08-20T06:48:03.030Z,5.80
2022-08-20T06:50:08.764Z,6.13
2022-08-20T06:52:11.745Z,5.63
2022-08-20T06:54:14.457Z,5.70
2022-08-20T06:56:17.066Z,5.23
2022-08-20T06:58:37.366Z,6.40
2022-08-20T07:00:42.435Z,6.37
2022-08-20T07:02:46.255Z,5.00
2022-08-20T07:04:48.895Z,5.10
2022-08-20T07:06:52.239Z,5.97
2022-08-20T07:08:55.277Z,5.77
2022-08-20T07:10:58.118Z,5.30
2022-08-20T07:13:01.069Z,4.90
2022-08-20T07:15:09.995Z,6.00
2022-08-20T07:17:13.842Z,5.37
2022-08-20T07:19:18.754Z,5.30
2022-08-20T07:21:24.852Z,5.73
2022-08-20T07:23:27.469Z,5.57
2022-08-20T07:25:30.950Z,6.30
2022-08-20T07:27:33.645Z,5.53
2022-08-20T07:29:50.205Z,7.00
2022-08-20T07:32:05.387Z,5.80
2022-08-20T07:34:08.282Z,5.90
2022-08-20T07:36:11.356Z,5.00
2022-08-20T07:38:15.442Z,5.57
2022-08-20T07:40:22.511Z,5.60
2022-08-20T07:42:29.428Z,5.73
2022-08-20T07:44:32.072Z,5.73
2022-08-20T07:46:34.763Z,5.53
2022-08-20T07:48:40.312Z,5.70
2022-08-20T07:50:43.586Z,6.00
2022-08-20T07:52:46.847Z,6.67
2022-08-20T07:54:49.470Z,6.73
2022-08-20T07:56:52.692Z,6.47
2022-08-20T07:58:56.191Z,6.90
2022-08-20T08:00:58.888Z,7.07
2022-08-20T08:03:01.646Z,7.27
2022-08-20T08:05:06.504Z,7.47
2022-08-20T08:07:09.203Z,6.87
2022-08-20T08:09:13.040Z,7.30
2022-08-20T08:11:16.343Z,7.23
2022-08-20T08:13:19.257Z,7.70
2022-08-20T08:15:24.493Z,7.30
2022-08-20T08:17:27.139Z,7.13
2022-08-20T08:19:34.217Z,7.50
2022-08-20T08:21:38.944Z,8.73
2022-08-20T08:23:44.550Z,7.57
2022-08-20T08:25:47.256Z,7.70
2022-08-20T08:27:50.360Z,7.50
2022-08-20T08:29:53.157Z,7.63
2022-08-20T08:31:55.769Z,6.90
2022-08-20T08:33:58.880Z,7.57
2022-08-20T08:36:03.282Z,7.07
2022-08-20T08:38:07.216Z,7.53
2022-08-20T08:40:17.287Z,7.30
2022-08-20T08:42:25.932Z,7.63
2022-08-20T08:44:30.314Z,7.47
2022-08-20T08:46:33.958Z,7.90
2022-08-20T08:48:38.157Z,7.90
2022-08-20T08:50:54.016Z,7.20
2022-08-20T08:53:00.270Z,7.03
2022-08-20T08:55:05.396Z,7.33
2022-08-20T08:57:08.009Z,7.30
2022-08-20T08:59:10.956Z,7.80
2022-08-20T09:01:54.322Z,7.57
2022-08-20T09:03:37.735Z,8.77
2022-08-20T09:05:43.995Z,9.00
2022-08-20T09:07:49.663Z,9.03
2022-08-20T09:09:53.395Z,8.40
2022-08-20T09:12:06.306Z,7.80
2022-08-20T09:14:08.915Z,7.40
2022-08-20T09:16:11.713Z,8.23
2022-08-20T09:18:14.674Z,8.90
2022-08-20T09:20:18.168Z,7.67
2022-08-20T09:22:21.973Z,8.70
2022-08-20T09:24:24.758Z,8.70
2022-08-20T09:26:29.133Z,7.40
2022-08-20T09:28:35.054Z,8.93
2022-08-20T09:30:39.807Z,8.30
2022-08-20T09:32:42.624Z,7.70
2022-08-20T09:34:48.055Z,7.83
2022-08-20T09:36:50.697Z,7.53
2022-08-20T09:38:53.547Z,7.60
2022-08-20T09:40:56.520Z,7.60
2022-08-20T09:42:59.591Z,7.80
2022-08-20T09:45:03.698Z,7.40
2022-08-20T09:47:13.814Z,7.83
2022-08-20T09:49:16.423Z,7.07
2022-08-20T09:51:19.429Z,7.43
2022-08-20T09:53:23.169Z,7.57
2022-08-20T09:55:29.636Z,7.30
2022-08-20T09:57:32.338Z,7.40
2022-08-20T09:59:36.208Z,6.70
2022-08-20T10:01:40.234Z,7.17
2022-08-20T10:03:43.231Z,7.30
2022-08-20T10:05:45.955Z,7.43
2022-08-20T10:07:49.432Z,7.13
2022-08-20T10:09:52.323Z,6.87
2022-08-20T10:11:54.969Z,6.70
2022-08-20T10:13:57.713Z,7.23
2022-08-20T10:16:01.356Z,6.97
2022-08-20T10:18:07.672Z,7.80
2022-08-20T10:20:11.840Z,6.40
2022-08-20T10:22:14.555Z,6.80
2022-08-20T10:24:18.933Z,6.50
2022-08-20T10:26:21.616Z,7.40
2022-08-20T10:28:24.258Z,6.70
2022-08-20T10:30:26.995Z,6.30
2022-08-20T10:32:29.985Z,7.10
2022-08-20T10:34:34.091Z,6.17
2022-08-20T10:36:36.701Z,6.80
2022-08-20T10:38:40.701Z,6.80
2022-08-20T10:40:43.342Z,6.40
2022-08-20T10:42:55.089Z,6.10
2022-08-20T10:44:57.714Z,6.73
2022-08-20T10:47:13.960Z,6.03
2022-08-20T10:49:16.611Z,5.87
2022-08-20T10:51:20.539Z,6.70
2022-08-20T10:53:33.045Z,6.27
2022-08-20T10:55:36.073Z,6.80
2022-08-20T10:57:40.444Z,6.40
2022-08-20T10:59:43.563Z,5.80
2022-08-20T11:01:46.208Z,6.60
2022-08-20T11:03:49.188Z,6.60
2022-08-20T11:05:51.804Z,7.00
2022-08-20T11:07:56.847Z,7.10
2022-08-20T11:09:59.593Z,6.57
2022-08-20T11:12:02.586Z,6.33
2022-08-20T11:14:05.252Z,7.60
2022-08-20T11:16:08.121Z,5.93
2022-08-20T11:18:11.109Z,5.97
2022-08-20T11:20:15.464Z,6.10
2022-08-20T11:22:18.163Z,6.07
2022-08-20T11:24:22.994Z,6.27
2022-08-20T11:26:25.614Z,5.70
2022-08-20T11:28:32.282Z,6.10
2022-08-20T11:30:36.807Z,5.33
2022-08-20T11:32:39.453Z,5.13
2022-08-20T11:34:43.291Z,7.90
2022-08-20T11:36:46.931Z,5.73
2022-08-20T11:38:50.603Z,5.90
2022-08-20T11:40:57.560Z,6.20
2022-08-20T11:43:18.531Z,6.17
2022-08-20T11:45:21.755Z,6.30
2022-08-20T11:47:25.432Z,6.00
2022-08-20T11:49:28.062Z,6.10
2022-08-20T11:51:31.125Z,6.00
2022-08-20T11:53:51.598Z,5.73
2022-08-20T11:55:55.836Z,6.10
2022-08-20T11:58:00.366Z,6.10
2022-08-20T12:00:06.478Z,6.00
2022-08-20T12:02:12.562Z,5.70
2022-08-20T12:04:15.445Z,5.53
2022-08-20T12:06:18.049Z,6.43
2022-08-20T12:08:27.478Z,5.77
2022-08-20T12:10:30.960Z,5.97
2022-08-20T12:12:34.881Z,6.37
2022-08-20T12:14:39.917Z,6.03
2022-08-20T12:16:42.911Z,5.90
2022-08-20T12:18:45.570Z,5.40
2022-08-20T12:20:48.287Z,6.17
2022-08-20T12:22:53.930Z,6.20
2022-08-20T12:24:56.915Z,6.20
2022-08-20T12:27:11.016Z,5.73
2022-08-20T12:29:14.950Z,6.10
2022-08-20T12:31:17.577Z,6.07
2022-08-20T12:33:20.204Z,6.30
2022-08-20T12:35:22.893Z,6.60
2022-08-20T12:37:26.325Z,6.20
2022-08-20T12:39:31.382Z,5.90
2022-08-20T12:41:34.072Z,6.30
2022-08-20T12:43:36.664Z,6.90
2022-08-20T12:45:40.914Z,7.07
2022-08-20T12:47:44.829Z,7.27
2022-08-20T12:49:48.569Z,7.40
2022-08-20T12:51:51.199Z,7.90
2022-08-20T12:53:54.175Z,8.00
2022-08-20T12:55:56.801Z,8.07
2022-08-20T12:58:01.125Z,7.97
2022-08-20T13:00:06.457Z,8.17
2022-08-20T13:02:18.900Z,8.90
2022-08-20T13:04:21.796Z,8.20
2022-08-20T13:06:24.426Z,8.50
2022-08-20T13:08:27.177Z,9.67
2022-08-20T13:10:31.476Z,10.10
2022-08-20T13:12:34.124Z,9.03
2022-08-20T13:14:36.858Z,9.40
2022-08-20T13:16:39.509Z,9.93
2022-08-20T13:18:44.010Z,9.53
2022-08-20T13:20:46.647Z,8.40
2022-08-20T13:22:49.281Z,9.03
2022-08-20T13:24:53.311Z,9.30
2022-08-20T13:27:04.354Z,9.60
2022-08-20T13:29:07.466Z,9.73
2022-08-20T13:31:10.065Z,9.30
2022-08-20T13:33:12.757Z,9.80
2022-08-20T13:35:19.506Z,9.83
2022-08-20T13:37:25.510Z,9.47
2022-08-20T13:39:28.526Z,10.30
2022-08-20T13:41:31.627Z,9.10
2022-08-20T13:43:34.263Z,9.97
2022-08-20T13:45:37.029Z,9.87
2022-08-20T13:47:41.512Z,8.80
2022-08-20T13:49:50.295Z,8.93
2022-08-20T13:51:54.489Z,9.80
2022-08-20T13:53:57.110Z,10.03
2022-08-20T13:55:59.706Z,9.47
2022-08-20T13:58:05.827Z,9.20
2022-08-20T14:00:11.948Z,9.30
2022-08-20T14:02:15.224Z,9.13
2022-08-20T14:04:18.055Z,8.73
2022-08-20T14:06:21.548Z,9.43
2022-08-20T14:08:26.646Z,9.47
2022-08-20T14:10:32.751Z,9.47
2022-08-20T14:12:35.819Z,11.53
2022-08-20T14:14:39.055Z,9.50
2022-08-20T14:16:43.262Z,9.17
2022-08-20T14:18:48.923Z,9.67
2022-08-20T14:20:55.646Z,8.30
2022-08-20T14:22:58.947Z,9.73
2022-08-20T14:25:03.930Z,9.23
2022-08-20T14:27:07.175Z,8.93
2022-08-20T14:29:11.966Z,9.07
2022-08-20T14:31:15.051Z,8.80
2022-08-20T14:33:17.652Z,9.40
2022-08-20T14:35:20.553Z,9.17
2022-08-20T14:37:28.897Z,9.17
2022-08-20T14:39:32.510Z,9.50
2022-08-20T14:41:37.964Z,9.03
2022-08-20T14:43:40.719Z,7.93
2022-08-20T14:45:43.947Z,9.07
2022-08-20T14:47:53.632Z,8.40
2022-08-20T14:50:02.631Z,8.83
2022-08-20T14:52:09.176Z,9.57
2022-08-20T14:54:13.284Z,8.20
2022-08-20T14:56:17.911Z,8.67
2022-08-20T14:58:22.080Z,8.30
2022-08-20T15:00:26.702Z,8.20
2022-08-20T15:02:42.349Z,8.30
2022-08-20T15:04:45.256Z,8.67
2022-08-20T15:06:54.924Z,8.13
2022-08-20T15:09:01.671Z,8.10
2022-08-20T15:11:07.334Z,9.13
2022-08-20T15:13:10.026Z,8.47
2022-08-20T15:15:18.018Z,8.90
2022-08-20T15:17:20.731Z,8.70
2022-08-20T15:19:23.815Z,8.30
2022-08-20T15:21:26.867Z,9.50
2022-08-20T15:23:29.439Z,9.73
2022-08-20T15:25:36.807Z,8.63
2022-08-20T15:27:40.471Z,8.90
2022-08-20T15:29:43.089Z,11.13
2022-08-20T15:31:52.712Z,11.43
2022-08-20T15:33:55.308Z,10.13
2022-08-20T15:35:57.926Z,9.47
2022-08-20T15:38:00.611Z,10.50
2022-08-20T15:40:04.195Z,11.70
2022-08-20T15:42:07.107Z,10.13
2022-08-20T15:44:12.514Z,9.93
2022-08-20T15:46:15.124Z,10.43
2022-08-20T15:48:20.244Z,11.13
2022-08-20T15:50:37.678Z,10.23
2022-08-20T15:52:42.813Z,10.07
2022-08-20T15:54:45.659Z,10.53
2022-08-20T15:56:53.830Z,9.10
2022-08-20T15:59:11.391Z,10.33
2022-08-20T16:01:24.270Z,9.87
2022-08-20T16:03:38.737Z,9.90
2022-08-20T16:05:45.060Z,9.33
2022-08-20T16:07:54.537Z,9.60
2022-08-20T16:10:02.149Z,10.60
2022-08-20T16:12:08.059Z,9.23
2022-08-20T16:14:16.310Z,8.90
2022-08-20T16:16:28.126Z,9.53
2022-08-20T16:18:35.157Z,10.37
2022-08-20T16:20:41.289Z,10.50
2022-08-20T16:22:44.878Z,10.57
2022-08-20T16:24:47.494Z,9.77
2022-08-20T16:26:59.535Z,9.43
2022-08-20T16:29:11.614Z,10.10
2022-08-20T16:31:19.725Z,9.17
2022-08-20T16:33:26.473Z,9.30
2022-08-20T16:35:31.801Z,9.50
2022-08-20T16:37:36.788Z,8.43
2022-08-20T16:39:42.514Z,9.30
2022-08-20T16:41:46.931Z,9.87
2022-08-20T16:43:53.314Z,9.83
2022-08-20T16:46:00.075Z,8.60
2022-08-20T16:48:04.456Z,9.30
2022-08-20T16:50:08.712Z,9.40
2022-08-20T16:52:13.049Z,9.23
2022-08-20T16:54:15.884Z,8.73
2022-08-20T16:56:31.647Z,9.30
2022-08-20T16:58:34.289Z,8.60
2022-08-20T17:00:45.397Z,9.27
2022-08-20T17:02:50.906Z,8.23
2022-08-20T17:04:59.239Z,8.30
2022-08-20T17:07:04.810Z,8.13
2022-08-20T17:09:14.352Z,8.07
2022-08-20T17:11:26.979Z,9.40
2022-08-20T17:13:30.903Z,8.13
2022-08-20T17:15:35.032Z,9.17
2022-08-20T17:17:37.954Z,8.20
2022-08-20T17:19:40.655Z,8.03
2022-08-20T17:21:43.371Z,7.77
2022-08-20T17:23:56.069Z,8.30
2022-08-20T17:26:02.242Z,8.00
2022-08-20T17:28:13.944Z,8.17
2022-08-20T17:30:21.007Z,7.80
2022-08-20T17:32:25.636Z,8.30
2022-08-20T17:34:29.718Z,7.77
2022-08-20T17:36:32.393Z,7.50
2022-08-20T17:38:38.603Z,7.30
2022-08-20T17:40:45.783Z,7.60
2022-08-20T17:42:52.448Z,7.70
2022-08-20T17:44:56.325Z,7.47
2022-08-20T17:46:59.406Z,8.00
2022-08-20T17:49:06.322Z,8.07
2022-08-20T17:51:15.352Z,7.10
2022-08-20T17:53:23.371Z,8.17
2022-08-20T17:55:28.214Z,7.73
2022-08-20T17:57:33.585Z,7.13
2022-08-20T18:00:00.622Z,7.37
2022-08-20T18:02:02.623Z,7.57
2022-08-20T18:04:06.422Z,7.97
2022-08-20T18:06:12.965Z,7.60
2022-08-20T18:08:22.115Z,7.40
2022-08-20T18:10:25.818Z,6.27
2022-08-20T18:12:34.409Z,7.37
2022-08-20T18:14:46.154Z,7.43
2022-08-20T18:16:57.729Z,7.00
2022-08-20T18:19:06.042Z,7.13
2022-08-20T18:21:16.870Z,6.50
2022-08-20T18:23:21.105Z,6.47
2022-08-20T18:25:29.348Z,5.97
2022-08-20T18:27:37.223Z,8.20
2022-08-20T18:29:42.882Z,7.13
2022-08-20T18:31:48.629Z,6.97
2022-08-20T18:33:51.287Z,6.67
2022-08-20T18:36:04.657Z,6.80
2022-08-20T18:38:13.846Z,6.60
2022-08-20T18:40:20.337Z,7.40
2022-08-20T18:42:25.313Z,6.97
2022-08-20T18:44:29.548Z,7.00
2022-08-20T18:46:34.045Z,6.80
2022-08-20T18:48:36.669Z,7.33
2022-08-20T18:50:45.564Z,7.10
2022-08-20T18:52:49.455Z,7.17
2022-08-20T18:54:53.506Z,5.70
2022-08-20T18:57:03.156Z,7.37
2022-08-20T18:59:09.064Z,6.47
2022-08-20T19:01:12.826Z,5.87
2022-08-20T19:03:20.323Z,6.60
2022-08-20T19:05:27.341Z,6.53
2022-08-20T19:07:43.276Z,5.97
2022-08-20T19:10:02.665Z,6.37
2022-08-20T19:12:12.585Z,6.57
2022-08-20T19:14:21.837Z,6.83
2022-08-20T19:16:27.789Z,6.43
2022-08-20T19:18:34.232Z,6.30
2022-08-20T19:20:38.670Z,6.03
2022-08-20T19:22:41.657Z,5.83
2022-08-20T19:24:44.396Z,6.50
2022-08-20T19:26:57.632Z,5.93
2022-08-20T19:29:01.489Z,5.80
2022-08-20T19:31:11.097Z,6.33
2022-08-20T19:33:13.993Z,5.77
2022-08-20T19:35:18.777Z,6.70
2022-08-20T19:37:35.536Z,6.10
2022-08-20T19:39:45.300Z,6.50
2022-08-20T19:41:49.441Z,6.23
2022-08-20T19:43:53.465Z,6.20
2022-08-20T19:45:56.635Z,5.80
2022-08-20T19:48:11.360Z,5.90
2022-08-20T19:50:20.929Z,5.60
2022-08-20T19:52:30.089Z,6.37
2022-08-20T19:54:32.862Z,5.63
2022-08-20T19:56:40.677Z,6.27
2022-08-20T19:58:43.754Z,5.60
2022-08-20T20:00:48.766Z,5.90
2022-08-20T20:02:51.492Z,6.63
2022-08-20T20:04:54.898Z,5.70
2022-08-20T20:06:59.825Z,5.60
2022-08-20T20:09:03.322Z,6.23
2022-08-20T20:11:06.296Z,5.27
2022-08-20T20:13:09.330Z,6.03
2022-08-20T20:15:12.338Z,5.63
2022-08-20T20:17:22.976Z,6.30
2022-08-20T20:19:27.427Z,5.97
2022-08-20T20:21:37.135Z,5.90
2022-08-20T20:23:46.930Z,6.10
2022-08-20T20:25:51.092Z,6.30
2022-08-20T20:27:55.744Z,12.10
2022-08-20T20:30:00.036Z,5.27
2022-08-20T20:32:03.166Z,5.27
2022-08-20T20:34:08.651Z,5.80
2022-08-20T20:36:12.724Z,5.60
2022-08-20T20:38:27.660Z,5.40
2022-08-20T20:40:35.822Z,5.23
2022-08-20T20:42:38.855Z,4.97
2022-08-20T20:44:43.545Z,5.93
2022-08-20T20:46:47.796Z,5.00
2022-08-20T20:48:51.414Z,6.23
2022-08-20T20:50:56.558Z,4.83
2022-08-20T20:52:59.878Z,5.90
2022-08-20T20:55:09.818Z,6.17
2022-08-20T20:57:38.204Z,5.47
2022-08-20T20:59:42.314Z,5.80
2022-08-20T21:01:48.390Z,6.20
2022-08-20T21:03:52.511Z,5.77
2022-08-20T21:05:55.229Z,5.43
2022-08-20T21:08:00.686Z,6.10
2022-08-20T21:10:03.332Z,6.30
2022-08-20T21:12:06.653Z,5.50
2022-08-20T21:14:10.531Z,6.00
2022-08-20T21:16:13.846Z,5.13
2022-08-20T21:18:16.453Z,6.43
2022-08-20T21:20:19.585Z,5.30
2022-08-20T21:22:22.182Z,5.27
2022-08-20T21:24:25.118Z,5.77
2022-08-20T21:26:28.220Z,5.90
2022-08-20T21:28:31.163Z,5.20
2022-08-20T21:30:35.136Z,5.77
2022-08-20T21:32:38.069Z,5.90
2022-08-20T21:34:41.086Z,5.67
2022-08-20T21:36:43.738Z,6.33
2022-08-20T21:38:46.461Z,6.00
2022-08-20T21:40:49.579Z,5.67
2022-08-20T21:42:52.280Z,5.60
2022-08-20T21:44:56.529Z,5.30
2022-08-20T21:47:01.168Z,5.37
2022-08-20T21:49:04.616Z,6.10
2022-08-20T21:51:07.444Z,5.70
2022-08-20T21:53:12.894Z,6.00
2022-08-20T21:55:16.407Z,6.00
2022-08-20T21:57:20.544Z,5.67
2022-08-20T21:59:23.937Z,6.27
2022-08-20T22:01:27.249Z,5.07
2022-08-20T22:03:36.899Z,4.97
2022-08-20T22:05:41.871Z,6.33
2022-08-20T22:07:44.555Z,5.57
2022-08-20T22:09:47.658Z,5.83
2022-08-20T22:11:54.689Z,5.67
2022-08-20T22:13:59.564Z,5.53
2022-08-20T22:16:02.483Z,5.50
2022-08-20T22:18:08.319Z,5.33
2022-08-20T22:20:13.154Z,6.43
2022-08-20T22:22:17.369Z,5.50
2022-08-20T22:24:25.317Z,5.43
2022-08-20T22:26:27.957Z,5.60
2022-08-20T22:28:31.054Z,6.20
2022-08-20T22:30:33.821Z,5.77
2022-08-20T22:32:50.504Z,5.60
2022-08-20T22:34:54.473Z,5.77
2022-08-20T22:37:00.685Z,5.90
2022-08-20T22:39:06.142Z,5.23
2022-08-20T22:41:09.854Z,5.83
2022-08-20T22:43:12.818Z,5.47
2022-08-20T22:45:16.755Z,5.63
2022-08-20T22:47:19.840Z,6.60
2022-08-20T22:49:24.322Z,6.20
2022-08-20T22:51:32.655Z,6.33
2022-08-20T22:53:39.513Z,5.90
2022-08-20T22:55:42.220Z,6.13
2022-08-20T22:57:46.174Z,6.10
2022-08-20T22:59:53.449Z,6.30
2022-08-20T23:01:56.146Z,5.80
2022-08-20T23:03:59.562Z,5.23
2022-08-20T23:06:02.238Z,5.70
2022-08-20T23:08:05.752Z,6.00
2022-08-20T23:10:09.747Z,5.67
2022-08-20T23:12:12.367Z,5.73
2022-08-20T23:14:15.011Z,6.20
2022-08-20T23:16:17.965Z,5.83
2022-08-20T23:18:20.633Z,6.30
2022-08-20T23:20:23.461Z,6.33
2022-08-20T23:22:26.080Z,6.03
2022-08-20T23:24:29.013Z,6.03
2022-08-20T23:26:32.968Z,5.70
2022-08-20T23:28:35.640Z,6.43
2022-08-20T23:30:38.858Z,5.20
2022-08-20T23:32:41.519Z,5.80
2022-08-20T23:34:44.231Z,5.67
2022-08-20T23:36:46.842Z,5.90
2022-08-20T23:38:49.857Z,5.93
2022-08-20T23:40:53.288Z,5.67
2022-08-20T23:42:57.389Z,6.00
2022-08-20T23:45:00.201Z,6.23
2022-08-20T23:47:03.335Z,6.47
2022-08-20T23:49:06.005Z,6.33
2022-08-20T23:51:08.658Z,5.90
2022-08-20T23:53:11.671Z,6.00
2022-08-20T23:55:14.639Z,5.53
2022-08-20T23:57:17.287Z,6.00
2022-08-20T23:59:25.271Z,5.83
